createdAt,value
2016-10-30T00:00:14.663Z,42.5
2016-10-30T00:01:14.294Z,42.5
2016-10-30T00:02:15.137Z,42.5
2016-10-30T00:03:14.474Z,42.5
2016-10-30T00:04:14.317Z,42.41
2016-10-30T00:05:15.200Z,42.41
2016-10-30T00:06:14.598Z,42.6
2016-10-30T00:07:14.316Z,42.89
2016-10-30T00:08:15.238Z,42.41
2016-10-30T00:09:16.535Z,42.99
2016-10-30T00:10:14.031Z,42.7
2016-10-30T00:11:14.037Z,42.6
2016-10-30T00:12:15.205Z,42.99
2016-10-30T00:13:14.150Z,42.6
2016-10-30T00:14:15.432Z,42.7
2016-10-30T00:15:14.964Z,43.28
2016-10-30T00:16:14.984Z,43.57
2016-10-30T00:17:14.071Z,43.64
2016-10-30T00:18:17.011Z,44.12
2016-10-30T00:19:14.450Z,44.12
2016-10-30T00:20:14.398Z,44.12
2016-10-30T00:21:15.188Z,43.74
2016-10-30T00:22:14.880Z,43.64
2016-10-30T00:23:14.445Z,43.16
2016-10-30T00:24:15.510Z,42.68
2016-10-30T00:25:15.004Z,42.8
2016-10-30T00:26:14.432Z,42.89
2016-10-30T00:27:15.684Z,42.41
2016-10-30T00:28:14.815Z,42.5
2016-10-30T00:29:14.449Z,42.7
2016-10-30T00:30:14.137Z,42.99
2016-10-30T00:31:16.788Z,42.5
2016-10-30T00:32:14.561Z,42.5
2016-10-30T00:33:14.155Z,42.5
2016-10-30T00:34:15.110Z,42.89
2016-10-30T00:35:14.365Z,42.7
2016-10-30T00:36:14.179Z,42.6
2016-10-30T00:37:15.521Z,42.7
2016-10-30T00:38:14.952Z,42.41
2016-10-30T00:39:14.189Z,42.8
2016-10-30T00:40:17.571Z,42.8
2016-10-30T00:41:14.663Z,42.5
2016-10-30T00:42:14.569Z,42.6
2016-10-30T00:43:15.578Z,42.7
2016-10-30T00:44:14.834Z,42.89
2016-10-30T00:45:14.224Z,43.08
2016-10-30T00:46:15.293Z,42.7
2016-10-30T00:47:14.907Z,42.99
2016-10-30T00:48:14.550Z,42.8
2016-10-30T00:49:15.908Z,43.18
2016-10-30T00:50:15.344Z,42.5
2016-10-30T00:51:14.651Z,42.5
2016-10-30T00:52:15.621Z,42.99
2016-10-30T00:53:16.919Z,42.99
2016-10-30T00:54:14.511Z,43.08
2016-10-30T00:55:14.315Z,42.99
2016-10-30T00:56:15.327Z,43.08
2016-10-30T00:57:14.946Z,42.7
2016-10-30T00:58:14.296Z,42.8
2016-10-30T01:00:41.196Z,42.8
2016-10-30T01:01:40.723Z,42.7
2016-10-30T01:02:40.347Z,42.8
2016-10-30T01:03:41.367Z,42.89
2016-10-30T01:04:41.158Z,42.99
2016-10-30T01:05:40.468Z,42.7
2016-10-30T01:06:41.489Z,43.08
2016-10-30T01:07:40.968Z,42.99
2016-10-30T01:08:42.254Z,43.08
2016-10-30T01:09:40.074Z,43.08
2016-10-30T01:10:41.454Z,43.16
2016-10-30T01:11:40.449Z,43.08
2016-10-30T01:12:40.092Z,43.18
2016-10-30T01:13:41.565Z,42.89
2016-10-30T01:14:40.575Z,42.7
2016-10-30T01:15:40.419Z,42.89
2016-10-30T01:16:41.174Z,42.8
2016-10-30T01:17:40.732Z,42.8
2016-10-30T01:18:40.536Z,43.57
2016-10-30T01:19:41.172Z,43.28
2016-10-30T01:20:41.134Z,43.28
2016-10-30T01:21:40.206Z,43.18
2016-10-30T01:22:41.409Z,43.26
2016-10-30T01:23:41.254Z,43.85
2016-10-30T01:24:40.563Z,43.74
2016-10-30T01:25:40.167Z,43.76
2016-10-30T01:26:41.429Z,43.28
2016-10-30T01:27:40.736Z,43.28
2016-10-30T01:28:56.082Z,43.18
2016-10-30T01:29:41.548Z,43.28
2016-10-30T01:30:42.470Z,43.47
2016-10-30T01:31:40.194Z,43.74
2016-10-30T01:32:41.672Z,44.12
2016-10-30T01:33:40.671Z,44.79
2016-10-30T01:34:40.268Z,45.06
2016-10-30T01:35:41.578Z,45.35
2016-10-30T01:36:40.790Z,45.15
2016-10-30T01:37:40.220Z,44.68
2016-10-30T01:38:41.267Z,44.7
2016-10-30T01:39:41.223Z,44.02
2016-10-30T01:40:40.235Z,43.74
2016-10-30T01:41:41.577Z,43.84
2016-10-30T01:42:41.347Z,43.64
2016-10-30T01:43:40.755Z,44.02
2016-10-30T01:44:41.627Z,43.93
2016-10-30T01:45:41.470Z,43.74
2016-10-30T01:46:40.835Z,43.64
2016-10-30T01:47:41.733Z,43.93
2016-10-30T01:48:41.361Z,43.64
2016-10-30T01:49:40.903Z,44.02
2016-10-30T01:50:40.339Z,43.54
2016-10-30T01:51:41.773Z,43.74
2016-10-30T01:52:42.683Z,43.74
2016-10-30T01:53:40.304Z,44.05
2016-10-30T01:54:41.361Z,43.93
2016-10-30T01:55:40.918Z,44.02
2016-10-30T01:56:40.679Z,44.12
2016-10-30T01:57:41.478Z,44.41
2016-10-30T01:58:41.059Z,44.31
2016-10-30T01:59:40.651Z,44.02
2016-10-30T02:00:41.600Z,44.02
2016-10-30T02:01:41.491Z,44.89
2016-10-30T02:02:40.783Z,45.35
2016-10-30T02:03:41.722Z,45.06
2016-10-30T02:04:41.570Z,45.83
2016-10-30T02:05:40.925Z,46.31
2016-10-30T02:06:40.369Z,45.45
2016-10-30T02:07:41.374Z,45.15
2016-10-30T02:08:40.732Z,44.87
2016-10-30T02:09:40.484Z,44.79
2016-10-30T02:10:41.861Z,44.41
2016-10-30T02:11:41.167Z,43.93
2016-10-30T02:12:40.709Z,44.31
2016-10-30T02:13:41.766Z,44.02
2016-10-30T02:14:43.184Z,44.12
2016-10-30T02:15:40.665Z,44.05
2016-10-30T02:16:41.569Z,43.84
2016-10-30T02:17:41.413Z,43.76
2016-10-30T02:18:40.430Z,44.53
2016-10-30T02:19:41.694Z,44.31
2016-10-30T02:20:41.222Z,44.51
2016-10-30T02:21:40.841Z,44.51
2016-10-30T02:22:40.502Z,44.51
2016-10-30T02:23:41.384Z,44.41
2016-10-30T02:24:40.954Z,44.41
2016-10-30T02:25:42.260Z,44.53
2016-10-30T02:26:41.467Z,44.89
2016-10-30T02:27:41.090Z,45.08
2016-10-30T02:28:41.947Z,45.92
2016-10-30T02:29:41.643Z,46.12
2016-10-30T02:30:41.264Z,45.45
2016-10-30T02:31:40.816Z,45.54
2016-10-30T02:32:41.865Z,45.45
2016-10-30T02:33:41.388Z,45.37
2016-10-30T02:34:40.519Z,45.08
2016-10-30T02:35:41.585Z,44.79
2016-10-30T02:36:42.956Z,44.89
2016-10-30T02:37:40.534Z,44.79
2016-10-30T02:38:40.537Z,44.7
2016-10-30T02:39:41.318Z,44.7
2016-10-30T02:40:40.940Z,44.6
2016-10-30T02:41:40.553Z,44.7
2016-10-30T02:42:41.759Z,44.41
2016-10-30T02:43:40.766Z,44.7
2016-10-30T02:44:40.568Z,44.43
2016-10-30T02:45:43.379Z,44.51
2016-10-30T02:46:41.537Z,44.6
2016-10-30T02:47:42.551Z,44.51
2016-10-30T02:48:42.052Z,44.6
2016-10-30T02:49:41.358Z,44.51
2016-10-30T02:50:40.600Z,44.22
2016-10-30T02:51:41.650Z,44.02
2016-10-30T02:52:41.483Z,43.93
2016-10-30T02:53:40.929Z,44.41
2016-10-30T02:54:41.761Z,44.51
2016-10-30T02:55:41.656Z,44.31
2016-10-30T02:56:40.949Z,44.31
2016-10-30T02:57:40.638Z,44.31
2016-10-30T02:58:41.725Z,44.31
2016-10-30T02:59:41.037Z,44.6
2016-10-30T03:00:40.655Z,44.31
2016-10-30T03:01:41.535Z,44.22
2016-10-30T03:02:41.158Z,44.41
2016-10-30T03:03:40.722Z,44.12
2016-10-30T03:04:41.660Z,44.22
2016-10-30T03:05:41.019Z,44.12
2016-10-30T03:06:40.740Z,44.02
2016-10-30T03:07:42.196Z,43.93
2016-10-30T03:08:41.142Z,44.02
2016-10-30T03:09:41.054Z,44.12
2016-10-30T03:10:41.776Z,44.12
2016-10-30T03:11:41.625Z,44.31
2016-10-30T03:12:41.032Z,44.41
2016-10-30T03:13:41.853Z,44.22
2016-10-30T03:14:41.684Z,44.02
2016-10-30T03:15:40.734Z,43.93
2016-10-30T03:16:40.789Z,43.84
2016-10-30T03:17:41.873Z,43.93
2016-10-30T03:18:42.715Z,44.12
2016-10-30T03:19:40.757Z,43.93
2016-10-30T03:20:41.996Z,43.84
2016-10-30T03:21:41.290Z,44.02
2016-10-30T03:22:40.774Z,44.31
2016-10-30T03:23:42.066Z,44.51
2016-10-30T03:24:41.064Z,44.6
2016-10-30T03:25:41.153Z,44.41
2016-10-30T03:26:41.928Z,44.41
2016-10-30T03:27:41.242Z,44.41
2016-10-30T03:28:41.116Z,44.12
2016-10-30T03:29:42.186Z,44.02
2016-10-30T03:30:41.362Z,44.02
2016-10-30T03:31:40.871Z,44.02
2016-10-30T03:32:41.951Z,44.02
2016-10-30T03:33:41.792Z,44.41
2016-10-30T03:34:41.149Z,44.31
2016-10-30T03:35:42.072Z,44.31
2016-10-30T03:36:41.607Z,44.51
2016-10-30T03:37:41.222Z,44.6
2016-10-30T03:38:40.859Z,44.51
2016-10-30T03:39:41.778Z,44.41
2016-10-30T03:40:42.897Z,44.7
2016-10-30T03:41:40.924Z,44.7
2016-10-30T03:42:42.210Z,44.41
2016-10-30T03:43:41.208Z,44.7
2016-10-30T03:44:41.201Z,44.6
2016-10-30T03:45:42.026Z,44.79
2016-10-30T03:46:41.643Z,44.7
2016-10-30T03:47:40.918Z,44.7
2016-10-30T03:48:42.043Z,44.7
2016-10-30T03:49:41.454Z,44.31
2016-10-30T03:50:41.237Z,44.31
2016-10-30T03:51:42.026Z,44.31
2016-10-30T03:52:41.577Z,44.6
2016-10-30T03:53:40.937Z,44.41
2016-10-30T03:54:42.216Z,44.51
2016-10-30T03:55:42.012Z,44.51
2016-10-30T03:56:41.059Z,44.41
2016-10-30T03:57:42.290Z,44.31
2016-10-30T03:58:56.647Z,44.51
2016-10-30T03:59:41.441Z,44.6
2016-10-30T04:00:42.412Z,44.7
2016-10-30T04:01:42.305Z,44.51
2016-10-30T04:02:41.600Z,44.41
2016-10-30T04:03:42.414Z,44.22
2016-10-30T04:04:43.880Z,44.51
2016-10-30T04:05:41.733Z,44.51
2016-10-30T04:06:41.005Z,44.22
2016-10-30T04:07:42.488Z,44.51
2016-10-30T04:08:41.861Z,44.51
2016-10-30T04:09:41.019Z,44.31
2016-10-30T04:10:42.141Z,44.51
2016-10-30T04:11:41.984Z,44.31
2016-10-30T04:12:41.350Z,44.31
2016-10-30T04:13:42.261Z,44.51
2016-10-30T04:14:42.103Z,44.6
2016-10-30T04:15:41.414Z,44.31
2016-10-30T04:16:41.056Z,44.51
2016-10-30T04:17:41.912Z,44.41
2016-10-30T04:18:41.224Z,44.7
2016-10-30T04:19:42.484Z,44.12
2016-10-30T04:20:42.450Z,44.31
2016-10-30T04:21:41.707Z,44.31
2016-10-30T04:22:41.086Z,44.41
2016-10-30T04:23:42.521Z,44.6
2016-10-30T04:24:41.830Z,44.79
2016-10-30T04:25:41.107Z,44.6
2016-10-30T04:26:42.569Z,44.6
2016-10-30T04:27:41.642Z,44.41
2016-10-30T04:29:42.232Z,44.6
2016-10-30T04:30:42.074Z,44.51
2016-10-30T04:31:41.185Z,44.31
2016-10-30T04:32:41.138Z,44.6
2016-10-30T04:33:41.883Z,44.31
2016-10-30T04:34:41.509Z,44.12
2016-10-30T04:35:44.480Z,44.12
2016-10-30T04:36:42.012Z,44.02
2016-10-30T04:37:43.320Z,44.02
2016-10-30T04:38:42.535Z,43.93
2016-10-30T04:39:42.534Z,44.02
2016-10-30T04:40:41.800Z,43.93
2016-10-30T04:41:41.499Z,44.22
2016-10-30T04:42:42.614Z,44.02
2016-10-30T04:43:41.876Z,43.93
2016-10-30T04:44:41.201Z,43.84
2016-10-30T04:45:42.309Z,44.22
2016-10-30T04:46:41.735Z,44.02
2016-10-30T04:47:41.530Z,44.02
2016-10-30T04:48:42.647Z,43.84
2016-10-30T04:49:42.171Z,43.93
2016-10-30T04:50:41.547Z,44.22
2016-10-30T04:51:41.241Z,43.84
2016-10-30T04:52:41.979Z,44.12
2016-10-30T04:53:41.600Z,43.93
2016-10-30T04:54:41.304Z,44.02
2016-10-30T04:55:42.103Z,43.93
2016-10-30T04:56:41.411Z,43.93
2016-10-30T04:57:41.282Z,44.31
2016-10-30T04:58:58.804Z,43.84
2016-10-30T04:59:43.458Z,43.84
2016-10-30T05:00:41.602Z,43.74
2016-10-30T05:01:42.403Z,43.84
2016-10-30T05:02:41.706Z,43.54
2016-10-30T05:03:41.613Z,44.12
2016-10-30T05:04:42.473Z,43.84
2016-10-30T05:05:41.831Z,43.84
2016-10-30T05:06:41.317Z,43.84
2016-10-30T05:07:42.373Z,44.38
2016-10-30T05:08:41.958Z,43.84
2016-10-30T05:09:41.651Z,44.1
2016-10-30T05:10:42.952Z,44.29
2016-10-30T05:11:42.385Z,43.71
2016-10-30T05:12:41.697Z,43.91
2016-10-30T05:13:41.350Z,44.1
2016-10-30T05:14:42.204Z,43.84
2016-10-30T05:15:41.505Z,43.84
2016-10-30T05:16:41.363Z,43.64
2016-10-30T05:17:42.372Z,43.71
2016-10-30T05:18:41.625Z,44.02
2016-10-30T05:19:41.696Z,43.74
2016-10-30T05:20:42.806Z,43.64
2016-10-30T05:21:43.675Z,43.74
2016-10-30T05:22:41.447Z,44.02
2016-10-30T05:23:42.501Z,43.52
2016-10-30T05:24:42.237Z,43.62
2016-10-30T05:25:41.823Z,43.74
2016-10-30T05:26:42.469Z,43.33
2016-10-30T05:27:42.360Z,43.64
2016-10-30T05:28:41.738Z,43.64
2016-10-30T05:29:41.429Z,43.54
2016-10-30T05:30:43.982Z,43.84
2016-10-30T05:31:41.479Z,43.81
2016-10-30T05:32:42.847Z,43.91
2016-10-30T05:33:42.292Z,43.52
2016-10-30T05:34:41.911Z,43.74
2016-10-30T05:35:41.460Z,43.54
2016-10-30T05:36:42.417Z,43.84
2016-10-30T05:37:42.086Z,43.84
2016-10-30T05:38:41.794Z,43.71
2016-10-30T05:39:42.589Z,43.52
2016-10-30T05:40:42.210Z,43.81
2016-10-30T05:41:41.806Z,43.64
2016-10-30T05:42:42.857Z,43.74
2016-10-30T05:43:42.418Z,43.62
2016-10-30T05:44:41.506Z,43.74
2016-10-30T05:45:42.561Z,44.12
2016-10-30T05:46:42.139Z,43.07
2016-10-30T05:47:41.834Z,43.35
2016-10-30T05:48:42.784Z,43.45
2016-10-30T05:49:42.575Z,43.26
2016-10-30T05:50:41.885Z,42.97
2016-10-30T05:51:41.589Z,43.81
2016-10-30T05:52:44.238Z,43.33
2016-10-30T05:53:42.006Z,43.23
2016-10-30T05:54:43.065Z,43.23
2016-10-30T05:55:42.558Z,43.62
2016-10-30T05:56:41.919Z,43.43
2016-10-30T05:57:41.881Z,43.07
2016-10-30T05:58:57.458Z,43.23
2016-10-30T05:59:41.990Z,43.23
2016-10-30T06:00:41.584Z,43.04
2016-10-30T06:01:42.642Z,43.33
2016-10-30T06:02:42.112Z,43.14
2016-10-30T06:03:41.601Z,43.26
2016-10-30T06:04:42.705Z,43.26
2016-10-30T06:05:42.549Z,43.07
2016-10-30T06:06:41.928Z,43.54
2016-10-30T06:07:41.622Z,43.45
2016-10-30T06:08:42.673Z,42.97
2016-10-30T06:09:41.982Z,43.07
2016-10-30T06:10:41.637Z,42.87
2016-10-30T06:11:42.491Z,43.26
2016-10-30T06:12:42.102Z,42.68
2016-10-30T06:13:41.657Z,42.58
2016-10-30T06:14:43.253Z,42.87
2016-10-30T06:15:41.911Z,43.54
2016-10-30T06:16:43.564Z,43.33
2016-10-30T06:17:42.778Z,42.94
2016-10-30T06:18:42.599Z,43.23
2016-10-30T06:19:41.737Z,43.14
2016-10-30T06:20:43.053Z,43.16
2016-10-30T06:21:42.508Z,42.94
2016-10-30T06:22:42.061Z,43.62
2016-10-30T06:23:42.799Z,43.14
2016-10-30T06:24:42.645Z,43.16
2016-10-30T06:25:43.448Z,42.87
2016-10-30T06:26:42.940Z,42.66
2016-10-30T06:27:42.814Z,42.97
2016-10-30T06:28:42.177Z,42.77
2016-10-30T06:29:43.060Z,42.58
2016-10-30T06:30:42.614Z,42.77
2016-10-30T06:31:41.936Z,42.97
2016-10-30T06:32:41.804Z,43.26
2016-10-30T06:33:43.061Z,42.68
2016-10-30T06:34:42.007Z,42.68
2016-10-30T06:35:41.765Z,42.77
2016-10-30T06:36:43.270Z,43.07
2016-10-30T06:37:42.491Z,42.77
2016-10-30T06:38:43.427Z,42.97
2016-10-30T06:39:42.838Z,42.68
2016-10-30T06:40:42.614Z,43.07
2016-10-30T06:41:41.801Z,42.77
2016-10-30T06:42:42.958Z,42.97
2016-10-30T06:43:42.424Z,43.07
2016-10-30T06:44:41.863Z,43.07
2016-10-30T06:45:43.031Z,42.49
2016-10-30T06:46:42.861Z,42.77
2016-10-30T06:47:42.172Z,42.77
2016-10-30T06:48:43.155Z,42.87
2016-10-30T06:49:43.039Z,42.87
2016-10-30T06:50:41.978Z,43.07
2016-10-30T06:51:43.212Z,42.97
2016-10-30T06:52:43.157Z,42.87
2016-10-30T06:53:42.415Z,42.77
2016-10-30T06:54:41.865Z,42.58
2016-10-30T06:55:43.016Z,42.68
2016-10-30T06:56:42.277Z,42.58
2016-10-30T06:57:41.883Z,42.58
2016-10-30T06:58:44.895Z,42.87
2016-10-30T06:59:42.714Z,42.58
2016-10-30T07:00:44.009Z,42.77
2016-10-30T07:01:43.004Z,42.58
2016-10-30T07:02:42.523Z,42.58
2016-10-30T07:03:41.911Z,42.77
2016-10-30T07:04:41.918Z,42.77
2016-10-30T07:05:42.952Z,43.04
2016-10-30T07:06:42.315Z,43.23
2016-10-30T07:07:43.233Z,43.14
2016-10-30T07:08:43.115Z,42.76
2016-10-30T07:09:42.387Z,42.77
2016-10-30T07:10:41.998Z,42.87
2016-10-30T07:11:43.249Z,42.77
2016-10-30T07:12:42.254Z,42.97
2016-10-30T07:13:41.968Z,42.97
2016-10-30T07:14:43.061Z,42.87
2016-10-30T07:15:42.372Z,43.07
2016-10-30T07:16:42.291Z,42.77
2016-10-30T07:17:43.034Z,42.77
2016-10-30T07:18:42.495Z,42.68
2016-10-30T07:19:42.046Z,42.97
2016-10-30T07:20:43.834Z,42.87
2016-10-30T07:21:42.613Z,43.16
2016-10-30T07:22:43.856Z,43.16
2016-10-30T07:23:42.020Z,43.14
2016-10-30T07:24:42.789Z,43.23
2016-10-30T07:25:42.044Z,43.07
2016-10-30T07:26:42.031Z,42.77
2016-10-30T07:27:42.947Z,42.97
2016-10-30T07:28:42.167Z,42.87
2016-10-30T07:29:42.048Z,42.97
2016-10-30T07:30:43.033Z,42.87
2016-10-30T07:31:42.654Z,42.68
2016-10-30T07:32:42.376Z,42.87
2016-10-30T07:33:43.155Z,42.77
2016-10-30T07:34:42.777Z,43.35
2016-10-30T07:35:42.439Z,42.3
2016-10-30T07:36:43.485Z,42.77
2016-10-30T07:37:42.917Z,42.58
2016-10-30T07:38:42.097Z,42.49
2016-10-30T07:39:43.193Z,42.68
2016-10-30T07:40:42.761Z,42.87
2016-10-30T07:41:42.112Z,42.58
2016-10-30T07:42:44.128Z,42.77
2016-10-30T07:43:43.082Z,42.77
2016-10-30T07:44:44.192Z,42.97
2016-10-30T07:45:43.437Z,42.77
2016-10-30T07:46:42.964Z,42.58
2016-10-30T07:47:42.317Z,42.87
2016-10-30T07:48:43.560Z,42.77
2016-10-30T07:49:43.134Z,42.77
2016-10-30T07:50:42.745Z,42.77
2016-10-30T07:51:42.173Z,42.77
2016-10-30T07:52:43.249Z,42.87
2016-10-30T07:53:42.557Z,42.77
2016-10-30T07:54:43.255Z,43.16
2016-10-30T07:55:44.573Z,42.87
2016-10-30T07:56:43.546Z,42.77
2016-10-30T07:57:43.111Z,42.68
2016-10-30T07:58:42.698Z,42.68
2016-10-30T07:59:43.669Z,42.97
2016-10-30T08:00:43.552Z,43.16
2016-10-30T08:01:42.855Z,42.68
2016-10-30T08:02:42.542Z,42.87
2016-10-30T08:03:43.671Z,42.97
2016-10-30T08:04:42.978Z,42.58
2016-10-30T08:05:42.273Z,42.68
2016-10-30T08:06:43.658Z,42.77
2016-10-30T08:07:43.118Z,43.35
2016-10-30T08:08:42.304Z,43.16
2016-10-30T08:09:43.363Z,42.97
2016-10-30T08:10:42.909Z,42.87
2016-10-30T08:11:42.591Z,42.58
2016-10-30T08:12:43.517Z,42.39
2016-10-30T08:13:43.347Z,42.22
2016-10-30T08:14:42.693Z,42.22
2016-10-30T08:15:44.476Z,41.93
2016-10-30T08:16:43.157Z,42.41
2016-10-30T08:17:44.745Z,41.35
2016-10-30T08:18:42.316Z,41.74
2016-10-30T08:19:43.378Z,41.66
2016-10-30T08:20:42.958Z,40.99
2016-10-30T08:21:42.389Z,41.18
2016-10-30T08:22:43.553Z,40.99
2016-10-30T08:23:42.762Z,40.99
2016-10-30T08:24:42.676Z,40.7
2016-10-30T08:25:43.476Z,40.89
2016-10-30T08:26:42.880Z,41.11
2016-10-30T08:27:42.377Z,40.91
2016-10-30T08:28:43.830Z,41.11
2016-10-30T08:29:43.357Z,41.11
2016-10-30T08:30:42.429Z,40.8
2016-10-30T08:31:43.597Z,41.01
2016-10-30T08:32:43.445Z,41.08
2016-10-30T08:33:42.437Z,41.01
2016-10-30T08:34:43.720Z,40.81
2016-10-30T08:35:43.251Z,40.81
2016-10-30T08:36:42.558Z,40.53
2016-10-30T08:37:45.845Z,40.91
2016-10-30T08:38:43.687Z,40.81
2016-10-30T08:39:44.999Z,40.81
2016-10-30T08:40:42.777Z,40.72
2016-10-30T08:41:43.859Z,40.34
2016-10-30T08:42:42.943Z,40.24
2016-10-30T08:43:42.797Z,40.14
2016-10-30T08:44:43.904Z,40.34
2016-10-30T08:45:43.341Z,40.91
2016-10-30T08:46:42.869Z,40.81
2016-10-30T08:47:43.617Z,40.34
2016-10-30T08:48:43.464Z,40.14
2016-10-30T08:49:42.843Z,39.97
2016-10-30T08:50:44.032Z,40.34
2016-10-30T08:51:43.222Z,40.16
2016-10-30T08:52:42.860Z,40.24
2016-10-30T08:53:42.556Z,40.05
2016-10-30T08:54:43.662Z,39.95
2016-10-30T08:55:42.968Z,40.24
2016-10-30T08:56:43.940Z,40.24
2016-10-30T08:57:43.468Z,39.97
2016-10-30T08:58:43.140Z,39.95
2016-10-30T08:59:42.645Z,39.95
2016-10-30T09:00:43.954Z,39.59
2016-10-30T09:01:44.825Z,39.49
2016-10-30T09:02:42.931Z,39.78
2016-10-30T09:03:43.769Z,39.59
2016-10-30T09:04:43.390Z,39.59
2016-10-30T09:05:42.633Z,39.59
2016-10-30T09:06:43.707Z,39.49
2016-10-30T09:07:43.248Z,39.49
2016-10-30T09:08:42.654Z,39.29
2016-10-30T09:09:43.785Z,39.11
2016-10-30T09:10:43.630Z,39.12
2016-10-30T09:11:42.679Z,38.81
2016-10-30T09:12:42.681Z,39.01
2016-10-30T09:13:43.439Z,38.93
2016-10-30T09:14:42.754Z,38.93
2016-10-30T09:15:44.031Z,39.59
2016-10-30T09:16:43.922Z,39.68
2016-10-30T09:17:43.183Z,39.78
2016-10-30T09:18:44.155Z,39.78
2016-10-30T09:19:43.998Z,39.68
2016-10-30T09:20:43.358Z,39.49
2016-10-30T09:21:43.055Z,39.68
2016-10-30T09:22:44.221Z,39.68
2016-10-30T09:23:45.441Z,39.59
2016-10-30T09:24:42.806Z,39.78
2016-10-30T09:25:43.867Z,39.68
2016-10-30T09:26:43.287Z,39.59
2016-10-30T09:27:42.826Z,39.97
2016-10-30T09:28:43.888Z,39.68
2016-10-30T09:29:43.725Z,39.78
2016-10-30T09:30:42.800Z,39.68
2016-10-30T09:31:42.802Z,39.59
2016-10-30T09:32:43.847Z,39.59
2016-10-30T09:33:43.210Z,39.78
2016-10-30T09:34:44.124Z,40.16
2016-10-30T09:35:43.968Z,40.36
2016-10-30T09:36:42.969Z,40.72
2016-10-30T09:37:44.199Z,40.84
2016-10-30T09:38:43.881Z,40.74
2016-10-30T09:39:43.139Z,40.94
2016-10-30T09:40:42.854Z,40.84
2016-10-30T09:41:43.952Z,40.84
2016-10-30T09:42:43.212Z,41.01
2016-10-30T09:43:43.187Z,40.84
2016-10-30T09:44:43.928Z,41.01
2016-10-30T09:45:45.267Z,41.22
2016-10-30T09:46:43.205Z,41.01
2016-10-30T09:47:43.974Z,41.01
2016-10-30T09:48:43.606Z,41.01
2016-10-30T09:49:43.222Z,41.2
2016-10-30T09:50:44.099Z,41.2
2016-10-30T09:51:43.942Z,41.2
2016-10-30T09:52:42.937Z,41.11
2016-10-30T09:53:42.982Z,41.3
2016-10-30T09:54:43.749Z,41.2
2016-10-30T09:55:43.061Z,41.39
2016-10-30T09:56:43.003Z,41.3
2016-10-30T09:57:44.240Z,41.78
2016-10-30T09:58:43.545Z,41.49
2016-10-30T09:59:43.280Z,42.26
2016-10-30T10:00:44.319Z,42.26
2016-10-30T10:01:43.670Z,42.16
2016-10-30T10:02:42.983Z,42.26
2016-10-30T10:03:44.355Z,42.36
2016-10-30T10:04:43.478Z,41.39
2016-10-30T10:05:44.712Z,41.59
2016-10-30T10:06:44.353Z,41.49
2016-10-30T10:07:43.325Z,41.3
2016-10-30T10:08:44.117Z,41.49
2016-10-30T10:09:43.859Z,41.88
2016-10-30T10:10:43.028Z,41.49
2016-10-30T10:11:44.137Z,42.16
2016-10-30T10:12:43.983Z,41.39
2016-10-30T10:13:43.361Z,41.59
2016-10-30T10:14:44.261Z,41.88
2016-10-30T10:15:44.105Z,42.36
2016-10-30T10:16:44.909Z,42.26
2016-10-30T10:17:44.382Z,42.36
2016-10-30T10:18:43.912Z,42.36
2016-10-30T10:19:43.273Z,42.36
2016-10-30T10:20:43.088Z,41.3
2016-10-30T10:21:44.035Z,41.2
2016-10-30T10:22:43.345Z,42.36
2016-10-30T10:23:43.417Z,42.55
2016-10-30T10:24:44.266Z,42.53
2016-10-30T10:25:43.832Z,42.24
2016-10-30T10:26:43.124Z,42.05
2016-10-30T10:27:44.493Z,42.53
2016-10-30T10:29:43.606Z,42.33
2016-10-30T10:30:44.511Z,42.43
2016-10-30T10:31:44.074Z,42.14
2016-10-30T10:32:43.474Z,42.43
2016-10-30T10:33:44.277Z,41.95
2016-10-30T10:34:43.891Z,42.24
2016-10-30T10:35:43.508Z,42.53
2016-10-30T10:36:44.478Z,42.14
2016-10-30T10:37:44.008Z,42.24
2016-10-30T10:38:45.242Z,42.72
2016-10-30T10:39:44.653Z,42.63
2016-10-30T10:40:44.494Z,42.53
2016-10-30T10:41:43.805Z,42.63
2016-10-30T10:42:43.525Z,42.14
2016-10-30T10:43:44.307Z,42.53
2016-10-30T10:44:43.668Z,42.53
2016-10-30T10:45:43.590Z,42.63
2016-10-30T10:46:44.283Z,42.05
2016-10-30T10:47:43.735Z,43.11
2016-10-30T10:48:43.608Z,42.53
2016-10-30T10:49:44.713Z,43.01
2016-10-30T10:50:44.172Z,42.7
2016-10-30T10:51:43.564Z,42.99
2016-10-30T10:52:43.265Z,42.72
2016-10-30T10:53:43.982Z,42.72
2016-10-30T10:54:43.614Z,43.18
2016-10-30T10:55:44.575Z,42.91
2016-10-30T10:56:44.103Z,42.53
2016-10-30T10:57:43.779Z,42.82
2016-10-30T10:58:43.348Z,42.5
2016-10-30T10:59:44.227Z,42.89
2016-10-30T11:00:45.459Z,42.8
2016-10-30T11:01:44.705Z,42.6
2016-10-30T11:02:46.273Z,42.6
2016-10-30T11:03:43.977Z,42.72
2016-10-30T11:04:43.691Z,42.43
2016-10-30T11:05:44.386Z,42.43
2016-10-30T11:06:44.146Z,42.24
2016-10-30T11:07:43.656Z,42.63
2016-10-30T11:08:44.702Z,42.24
2016-10-30T11:09:44.318Z,42.63
2016-10-30T11:10:43.726Z,42.14
2016-10-30T11:11:44.930Z,42.33
2016-10-30T11:12:44.394Z,42.14
2016-10-30T11:13:43.997Z,42.91
2016-10-30T11:14:43.386Z,42.89
2016-10-30T11:15:44.510Z,43.28
2016-10-30T11:16:43.607Z,42.53
2016-10-30T11:17:44.790Z,42.53
2016-10-30T11:18:44.370Z,42.24
2016-10-30T11:19:43.631Z,42.43
2016-10-30T11:20:43.416Z,42.14
2016-10-30T11:21:44.493Z,42.53
2016-10-30T11:22:45.675Z,44.05
2016-10-30T11:23:43.746Z,44.14
2016-10-30T11:24:44.813Z,43.76
2016-10-30T11:25:43.927Z,43.08
2016-10-30T11:26:43.763Z,42.89
2016-10-30T11:27:44.517Z,42.8
2016-10-30T11:28:44.358Z,43.11
2016-10-30T11:29:43.778Z,43.01
2016-10-30T11:30:44.636Z,42.72
2016-10-30T11:31:44.167Z,42.53
2016-10-30T11:32:43.481Z,42.91
2016-10-30T11:33:44.809Z,43.57
2016-10-30T11:34:44.293Z,43.95
2016-10-30T11:35:45.462Z,44.72
2016-10-30T11:36:43.554Z,44.62
2016-10-30T11:37:44.460Z,44.91
2016-10-30T11:38:44.034Z,45.47
2016-10-30T11:39:44.891Z,45.85
2016-10-30T11:40:44.847Z,46.12
2016-10-30T11:41:43.843Z,46.02
2016-10-30T11:42:43.536Z,45.35
2016-10-30T11:43:44.953Z,45.35
2016-10-30T11:44:46.279Z,44.99
2016-10-30T11:45:43.549Z,45.47
2016-10-30T11:46:44.927Z,46.33
2016-10-30T11:47:44.466Z,46.12
2016-10-30T11:48:43.876Z,46.12
2016-10-30T11:49:44.729Z,46.02
2016-10-30T11:50:44.261Z,45.64
2016-10-30T11:51:43.573Z,45.28
2016-10-30T11:52:44.902Z,44.79
2016-10-30T11:53:44.387Z,44.62
2016-10-30T11:54:44.005Z,44.24
2016-10-30T11:55:44.976Z,44.53
2016-10-30T11:56:44.505Z,44.05
2016-10-30T11:57:45.716Z,43.76
2016-10-30T11:58:45.098Z,44.05
2016-10-30T11:59:44.990Z,43.37
2016-10-30T12:00:43.987Z,44.24
2016-10-30T12:01:43.626Z,43.66
2016-10-30T12:02:45.047Z,43.95
2016-10-30T12:03:44.108Z,43.85
2016-10-30T12:04:43.954Z,45.1
2016-10-30T12:05:45.022Z,44.99
2016-10-30T12:06:46.499Z,45.18
2016-10-30T12:07:43.659Z,45.47
2016-10-30T12:08:44.826Z,45.76
2016-10-30T12:09:44.369Z,46.02
2016-10-30T12:10:43.674Z,45.92
2016-10-30T12:11:43.676Z,45.83
2016-10-30T12:12:44.477Z,45.95
2016-10-30T12:13:43.787Z,46.12
2016-10-30T12:14:45.070Z,46.89
2016-10-30T12:15:44.651Z,46.79
2016-10-30T12:16:43.958Z,46.59
2016-10-30T12:17:45.078Z,46.98
2016-10-30T12:18:45.084Z,46.79
2016-10-30T12:19:45.895Z,46.98
2016-10-30T12:20:44.036Z,47.08
2016-10-30T12:21:44.823Z,46.5
2016-10-30T12:22:44.209Z,46.12
2016-10-30T12:23:43.734Z,46.89
2016-10-30T12:24:45.117Z,46.79
2016-10-30T12:25:44.343Z,47.17
2016-10-30T12:26:44.062Z,47.82
2016-10-30T12:27:44.919Z,47.25
2016-10-30T12:28:46.714Z,47.15
2016-10-30T12:29:44.124Z,48.02
2016-10-30T12:30:45.142Z,47.44
2016-10-30T12:31:44.936Z,48.11
2016-10-30T12:32:44.193Z,47.82
2016-10-30T12:33:45.163Z,47.92
2016-10-30T12:34:44.694Z,47.92
2016-10-30T12:35:44.419Z,47.34
2016-10-30T12:36:43.798Z,46.77
2016-10-30T12:37:45.181Z,46.5
2016-10-30T12:38:44.442Z,46.12
2016-10-30T12:39:43.809Z,46.12
2016-10-30T12:40:45.223Z,45.15
2016-10-30T12:41:46.112Z,45.18
2016-10-30T12:42:44.140Z,45.37
2016-10-30T12:43:45.173Z,45.18
2016-10-30T12:44:44.734Z,45.37
2016-10-30T12:45:43.835Z,45.08
2016-10-30T12:46:45.014Z,44.79
2016-10-30T12:47:44.546Z,45.66
2016-10-30T12:48:44.380Z,45.37
2016-10-30T12:49:45.140Z,45.18
2016-10-30T12:50:46.863Z,44.89
2016-10-30T12:51:44.293Z,45.66
2016-10-30T12:52:45.458Z,45.47
2016-10-30T12:53:45.106Z,45.54
2016-10-30T12:54:44.101Z,45.37
2016-10-30T12:55:43.885Z,45.56
2016-10-30T12:56:45.276Z,44.79
2016-10-30T12:57:44.585Z,44.89
2016-10-30T12:58:44.279Z,44.82